createdAt,value
2022-09-11T00:02:46.449Z,16.24
2022-09-11T00:05:54.170Z,16.17
2022-09-11T00:09:03.251Z,16.24
2022-09-11T00:12:12.854Z,16.26
2022-09-11T00:15:21.888Z,16.21
2022-09-11T00:18:36.517Z,16.16
2022-09-11T00:21:44.098Z,16.16
2022-09-11T00:24:52.018Z,16.18
2022-09-11T00:28:02.010Z,16.18
2022-09-11T00:31:10.074Z,16.18
2022-09-11T00:34:20.470Z,16.16
2022-09-11T00:37:30.880Z,16.16
2022-09-11T00:40:46.318Z,16.16
2022-09-11T00:44:01.987Z,16.14
2022-09-11T00:47:13.497Z,16.14
2022-09-11T00:50:24.371Z,16.15
2022-09-11T00:53:34.310Z,16.20
2022-09-11T00:56:44.884Z,16.23
2022-09-11T00:59:56.662Z,16.25
2022-09-11T01:03:05.215Z,16.27
2022-09-11T01:06:17.190Z,16.24
2022-09-11T01:09:24.194Z,16.21
2022-09-11T01:12:38.855Z,16.21
2022-09-11T01:15:54.375Z,16.20
2022-09-11T01:19:10.747Z,16.25
2022-09-11T01:22:45.656Z,16.24
2022-09-11T01:26:17.244Z,16.25
2022-09-11T01:29:32.161Z,16.22
2022-09-11T01:32:46.635Z,16.21
2022-09-11T01:35:59.127Z,16.27
2022-09-11T01:39:08.055Z,16.25
2022-09-11T01:42:18.685Z,16.26
2022-09-11T01:45:32.815Z,16.24
2022-09-11T01:48:44.634Z,16.18
2022-09-11T01:51:58.110Z,16.23
2022-09-11T01:55:09.225Z,16.24
2022-09-11T01:58:22.204Z,16.23
2022-09-11T02:01:33.561Z,16.21
2022-09-11T02:04:44.642Z,16.19
2022-09-11T02:07:59.839Z,16.15
2022-09-11T02:11:12.844Z,16.12
2022-09-11T02:14:30.892Z,16.12
2022-09-11T02:17:53.439Z,16.09
2022-09-11T02:21:01.004Z,16.08
2022-09-11T02:24:10.679Z,16.11
2022-09-11T02:27:28.622Z,16.16
2022-09-11T02:30:40.109Z,16.18
2022-09-11T02:33:49.090Z,16.22
2022-09-11T02:37:14.041Z,16.31
2022-09-11T02:40:40.580Z,16.29
2022-09-11T02:44:04.266Z,16.35
2022-09-11T02:47:23.228Z,16.38
2022-09-11T02:50:36.777Z,16.51
2022-09-11T02:54:00.647Z,16.58
2022-09-11T02:57:15.409Z,16.52
2022-09-11T03:00:25.390Z,16.56
2022-09-11T03:03:41.902Z,16.59
2022-09-11T03:06:53.970Z,16.58
2022-09-11T03:10:02.596Z,16.63
2022-09-11T03:13:10.544Z,16.65
2022-09-11T03:16:17.902Z,16.61
2022-09-11T03:19:27.728Z,16.57
2022-09-11T03:22:39.965Z,16.52
2022-09-11T03:25:53.038Z,16.58
2022-09-11T03:29:03.912Z,16.57
2022-09-11T03:32:12.647Z,16.60
2022-09-11T03:35:18.841Z,16.64
2022-09-11T03:38:28.078Z,16.58
2022-09-11T03:41:35.859Z,16.54
2022-09-11T03:44:42.867Z,16.55
2022-09-11T03:47:49.478Z,16.54
2022-09-11T03:51:03.830Z,16.58
2022-09-11T03:54:16.087Z,16.60
2022-09-11T03:57:23.088Z,16.58
2022-09-11T04:00:35.711Z,16.57
2022-09-11T04:03:42.367Z,16.56
2022-09-11T04:06:48.961Z,16.58
2022-09-11T04:09:56.986Z,16.53
2022-09-11T04:13:03.595Z,16.56
2022-09-11T04:16:13.530Z,16.53
2022-09-11T04:19:22.918Z,16.57
2022-09-11T04:22:35.986Z,16.61
2022-09-11T04:25:49.501Z,16.62
2022-09-11T04:28:57.211Z,16.58
2022-09-11T04:32:06.852Z,16.56
2022-09-11T04:35:16.086Z,16.52
2022-09-11T04:38:24.703Z,16.51
2022-09-11T04:41:36.709Z,16.47
2022-09-11T04:44:48.283Z,16.46
2022-09-11T04:48:04.229Z,16.47
2022-09-11T04:55:13.645Z,16.49
2022-09-11T04:58:39.016Z,16.53
2022-09-11T05:01:53.035Z,16.50
2022-09-11T05:05:03.386Z,16.49
2022-09-11T05:08:30.514Z,16.46
2022-09-11T05:11:48.609Z,16.39
2022-09-11T05:14:57.727Z,16.40
2022-09-11T05:18:05.191Z,16.43
2022-09-11T05:21:15.243Z,16.46
2022-09-11T05:24:24.104Z,16.42
2022-09-11T05:27:31.268Z,16.44
2022-09-11T05:30:39.362Z,16.45
2022-09-11T05:33:46.564Z,16.55
2022-09-11T05:36:52.917Z,16.54
2022-09-11T05:40:00.106Z,16.56
2022-09-11T05:43:06.467Z,16.57
2022-09-11T05:46:17.193Z,16.53
2022-09-11T05:49:24.428Z,16.48
2022-09-11T05:52:32.794Z,16.49
2022-09-11T05:55:42.055Z,16.55
2022-09-11T05:58:48.521Z,16.65
2022-09-11T06:02:00.997Z,16.65
2022-09-11T06:05:07.795Z,16.65
2022-09-11T06:08:15.700Z,16.61
2022-09-11T06:11:23.200Z,16.58
2022-09-11T06:14:28.822Z,16.64
2022-09-11T06:17:36.757Z,16.70
2022-09-11T06:20:42.785Z,16.68
2022-09-11T06:23:49.721Z,16.70
2022-09-11T06:26:56.784Z,16.74
2022-09-11T06:30:03.869Z,16.77
2022-09-11T06:33:14.371Z,16.82
2022-09-11T06:36:21.320Z,16.91
2022-09-11T06:39:28.167Z,16.89
2022-09-11T06:42:38.388Z,16.94
2022-09-11T06:45:45.360Z,16.93
2022-09-11T06:48:55.190Z,17.00
2022-09-11T06:52:03.591Z,17.04
2022-09-11T06:55:15.102Z,17.06
2022-09-11T06:58:25.267Z,17.06
2022-09-11T07:01:36.739Z,17.03
2022-09-11T07:04:50.043Z,17.05
2022-09-11T07:07:59.538Z,17.10
2022-09-11T07:11:08.018Z,17.08
2022-09-11T07:14:14.099Z,17.05
2022-09-11T07:17:20.060Z,17.06
2022-09-11T07:20:29.484Z,17.13
2022-09-11T07:23:36.673Z,17.11
2022-09-11T07:26:44.474Z,17.11
2022-09-11T07:29:56.064Z,17.17
2022-09-11T07:33:05.195Z,17.22
2022-09-11T07:36:14.941Z,17.23
2022-09-11T07:39:21.413Z,17.26
2022-09-11T07:42:27.859Z,17.31
2022-09-11T07:45:33.594Z,17.33
2022-09-11T07:48:41.475Z,17.34
2022-09-11T07:51:49.117Z,17.35
2022-09-11T07:54:55.686Z,17.38
2022-09-11T07:58:04.147Z,17.41
2022-09-11T08:01:11.977Z,17.41
2022-09-11T08:04:19.135Z,17.49
2022-09-11T08:07:27.094Z,17.57
2022-09-11T08:10:34.607Z,17.65
2022-09-11T08:13:41.081Z,17.73
2022-09-11T08:16:47.656Z,17.91
2022-09-11T08:19:53.774Z,18.06
2022-09-11T08:23:01.780Z,18.18
2022-09-11T08:26:09.582Z,18.33
2022-09-11T08:29:15.806Z,18.27
2022-09-11T08:32:22.044Z,18.17
2022-09-11T08:35:28.819Z,18.13
2022-09-11T08:38:37.765Z,18.03
2022-09-11T08:41:50.236Z,17.93
2022-09-11T08:45:00.239Z,18.01
2022-09-11T08:48:10.026Z,18.42
2022-09-11T08:51:20.739Z,18.97
2022-09-11T08:54:31.586Z,19.45
2022-09-11T08:57:45.743Z,19.93
2022-09-11T09:01:01.554Z,20.32
2022-09-11T09:04:31.521Z,20.65
2022-09-11T09:07:48.629Z,20.66
2022-09-11T09:11:12.628Z,20.40
2022-09-11T09:14:58.056Z,20.26
2022-09-11T09:18:17.809Z,20.42
2022-09-11T09:21:32.715Z,20.42
2022-09-11T09:24:47.870Z,20.28
2022-09-11T09:28:03.040Z,20.15
2022-09-11T09:31:16.506Z,19.93
2022-09-11T09:34:27.399Z,19.83
2022-09-11T09:37:35.875Z,19.73
2022-09-11T09:40:46.564Z,19.67
2022-09-11T09:44:01.726Z,19.67
2022-09-11T09:47:14.451Z,19.64
2022-09-11T09:50:23.395Z,19.72
2022-09-11T09:53:37.491Z,19.65
2022-09-11T09:56:44.915Z,19.61
2022-09-11T10:00:01.269Z,19.57
2022-09-11T10:03:23.247Z,19.62
2022-09-11T10:06:33.173Z,19.59
2022-09-11T10:09:42.130Z,19.58
2022-09-11T10:13:07.837Z,19.58
2022-09-11T10:16:51.851Z,19.51
2022-09-11T10:20:13.569Z,19.51
2022-09-11T10:23:31.035Z,19.52
2022-09-11T10:26:47.290Z,19.48
2022-09-11T10:29:55.145Z,19.55
2022-09-11T10:33:05.745Z,19.64
2022-09-11T10:36:15.733Z,19.80
2022-09-11T10:39:24.351Z,19.87
2022-09-11T10:42:35.989Z,20.05
2022-09-11T10:45:41.834Z,20.63
2022-09-11T10:48:56.607Z,20.88
2022-09-11T10:52:05.990Z,21.09
2022-09-11T10:55:18.516Z,21.17
2022-09-11T10:58:28.774Z,21.25
2022-09-11T11:01:35.138Z,21.30
2022-09-11T11:04:43.129Z,21.24
2022-09-11T11:08:14.563Z,21.18
2022-09-11T11:11:40.000Z,21.06
2022-09-11T11:15:10.654Z,20.95
2022-09-11T11:18:39.052Z,21.02
2022-09-11T11:22:00.867Z,21.48
2022-09-11T11:25:20.622Z,21.96
2022-09-11T11:28:47.326Z,22.33
2022-09-11T11:32:19.363Z,22.65
2022-09-11T11:35:34.852Z,22.98
2022-09-11T11:38:49.297Z,22.97
2022-09-11T11:42:11.031Z,23.24
2022-09-11T11:45:26.732Z,23.71
2022-09-11T11:48:40.336Z,24.07
2022-09-11T11:51:53.234Z,24.36
2022-09-11T11:55:08.022Z,24.36
2022-09-11T11:58:24.221Z,23.89
2022-09-11T12:01:38.505Z,23.42
2022-09-11T12:04:52.417Z,23.00
2022-09-11T12:07:58.303Z,22.76
2022-09-11T12:11:08.232Z,22.42
2022-09-11T12:14:34.147Z,22.21
2022-09-11T12:17:40.154Z,22.11
2022-09-11T12:20:57.754Z,22.07
2022-09-11T12:32:42.191Z,22.08
2022-09-11T12:36:04.906Z,22.25
2022-09-11T12:39:35.246Z,22.52
2022-09-11T12:43:24.119Z,22.43
2022-09-11T12:47:17.224Z,22.37
2022-09-11T12:50:35.194Z,22.31
2022-09-11T12:53:46.716Z,22.25
2022-09-11T12:57:20.474Z,22.21
2022-09-11T13:00:44.200Z,21.98
2022-09-11T13:03:59.026Z,21.83
2022-09-11T13:07:16.531Z,21.69
2022-09-11T13:10:35.784Z,21.47
2022-09-11T13:13:48.626Z,21.37
2022-09-11T13:17:05.414Z,21.35
2022-09-11T13:20:33.311Z,21.20
2022-09-11T13:23:45.601Z,21.13
2022-09-11T13:26:55.941Z,21.11
2022-09-11T13:30:07.320Z,21.15
2022-09-11T13:33:30.940Z,21.03
2022-09-11T13:36:37.311Z,21.04
2022-09-11T13:39:44.097Z,21.01
2022-09-11T13:42:47.157Z,21.10
2022-09-11T14:02:49.655Z,21.59
2022-09-11T14:05:54.888Z,22.05
2022-09-11T14:08:58.088Z,22.58
2022-09-11T14:12:03.450Z,23.02
2022-09-11T14:15:17.298Z,23.88
2022-09-11T14:18:29.962Z,24.96
2022-09-11T14:21:35.286Z,25.81
2022-09-11T14:24:38.732Z,26.41
2022-09-11T14:27:44.621Z,26.51
2022-09-11T14:31:10.784Z,26.63
2022-09-11T14:34:18.944Z,26.50
2022-09-11T14:37:22.700Z,26.33
2022-09-11T14:40:25.355Z,25.92
2022-09-11T14:43:32.606Z,25.53
2022-09-11T14:46:37.010Z,25.18
2022-09-11T14:49:39.678Z,24.84
2022-09-11T14:52:43.412Z,24.70
2022-09-11T14:55:46.257Z,24.64
2022-09-11T14:58:49.411Z,24.62
2022-09-11T15:01:53.466Z,24.56
2022-09-11T15:04:58.382Z,24.62
2022-09-11T15:08:01.378Z,24.66
2022-09-11T15:11:06.135Z,24.67
2022-09-11T15:14:23.458Z,24.64
2022-09-11T15:17:36.172Z,24.57
2022-09-11T15:20:39.561Z,24.53
2022-09-11T15:23:42.214Z,24.32
2022-09-11T15:26:45.622Z,24.24
2022-09-11T15:29:48.285Z,24.16
2022-09-11T15:32:52.277Z,24.05
2022-09-11T15:35:56.777Z,23.79
2022-09-11T15:38:59.429Z,23.70
2022-09-11T15:42:02.725Z,23.53
2022-09-11T15:45:07.441Z,23.41
2022-09-11T15:48:11.433Z,23.27
2022-09-11T15:51:15.573Z,23.14
2022-09-11T15:54:20.452Z,23.06
2022-09-11T15:57:23.224Z,23.00
2022-09-11T16:00:25.855Z,22.94
2022-09-11T16:03:30.515Z,22.92
2022-09-11T16:06:37.539Z,22.93
2022-09-11T16:09:40.241Z,22.85
2022-09-11T16:12:43.267Z,22.80
2022-09-11T16:15:46.302Z,22.74
2022-09-11T16:18:50.322Z,22.62
2022-09-11T16:21:53.566Z,22.55
2022-09-11T16:24:56.237Z,22.45
2022-09-11T16:27:58.985Z,22.37
2022-09-11T16:31:02.429Z,22.24
2022-09-11T16:34:06.485Z,22.11
2022-09-11T16:37:10.848Z,21.97
2022-09-11T16:40:13.552Z,21.87
2022-09-11T16:43:21.258Z,21.79
2022-09-11T16:46:26.879Z,21.61
2022-09-11T16:49:44.839Z,21.50
2022-09-11T19:50:09.039Z,16.49
2022-09-11T19:53:14.832Z,16.43
2022-09-11T19:56:23.048Z,16.42
2022-09-11T19:59:29.680Z,16.38
2022-09-11T20:02:34.771Z,16.34
2022-09-11T20:05:42.818Z,16.31
2022-09-11T20:08:49.423Z,16.29
2022-09-11T20:11:55.140Z,16.30
2022-09-11T20:15:02.302Z,16.23
2022-09-11T20:18:07.893Z,16.19
2022-09-11T20:21:15.951Z,16.15
2022-09-11T20:24:22.664Z,16.09
2022-09-11T20:27:27.967Z,16.06
2022-09-11T20:30:35.085Z,16.04
2022-09-11T20:33:40.159Z,16.01
2022-09-11T20:36:47.617Z,15.95
2022-09-11T20:39:52.798Z,15.94
2022-09-11T20:42:58.005Z,15.92
2022-09-11T20:46:04.930Z,15.87
2022-09-11T20:49:09.907Z,15.84
2022-09-11T20:52:17.020Z,15.81
2022-09-11T20:55:22.330Z,15.77
2022-09-11T20:58:27.531Z,15.74
2022-09-11T21:01:35.609Z,15.70
2022-09-11T21:04:41.016Z,15.69
2022-09-11T21:07:47.228Z,15.66
2022-09-11T21:10:52.368Z,15.62
2022-09-11T21:13:57.682Z,15.56
2022-09-11T21:17:03.912Z,15.55
2022-09-11T21:20:09.331Z,15.54
2022-09-11T21:23:15.689Z,15.55
2022-09-11T21:26:22.489Z,15.55
2022-09-11T21:29:27.645Z,15.47
2022-09-11T21:32:34.019Z,15.43
2022-09-11T21:35:39.227Z,15.38
2022-09-11T21:38:44.222Z,15.38
2022-09-11T21:41:49.055Z,15.36
2022-09-11T21:44:55.874Z,15.29
2022-09-11T21:48:03.363Z,15.27
2022-09-11T21:51:10.251Z,15.22
2022-09-11T21:54:15.359Z,15.19
2022-09-11T21:57:21.022Z,15.17
2022-09-11T22:00:26.005Z,15.12
2022-09-11T22:03:32.775Z,15.07
2022-09-11T22:06:38.115Z,15.07
2022-09-11T22:09:43.173Z,15.04
2022-09-11T22:12:48.631Z,15.03
2022-09-11T22:15:53.755Z,14.99
2022-09-11T22:18:59.790Z,14.95
2022-09-11T22:22:05.098Z,14.94
2022-09-11T22:25:11.004Z,14.90
2022-09-11T22:28:18.306Z,14.84
2022-09-11T22:31:29.438Z,14.82
2022-09-11T22:34:37.138Z,14.80
2022-09-11T22:37:42.156Z,14.72
2022-09-11T22:40:47.475Z,14.72
2022-09-11T22:43:52.536Z,14.66
2022-09-11T22:46:58.080Z,14.67
2022-09-11T22:50:04.884Z,14.66
2022-09-11T22:53:10.065Z,14.64
2022-09-11T22:56:15.528Z,14.59
2022-09-11T22:59:22.909Z,14.58
2022-09-11T23:02:28.121Z,14.56
2022-09-11T23:05:51.195Z,14.55
2022-09-11T23:08:56.411Z,14.55
2022-09-11T23:12:01.830Z,14.48
2022-09-11T23:15:07.229Z,14.52
2022-09-11T23:18:12.524Z,14.43
2022-09-11T23:21:18.623Z,14.39
2022-09-11T23:24:25.707Z,14.33
2022-09-11T23:27:30.812Z,14.32
2022-09-11T23:30:35.391Z,14.33
2022-09-11T23:33:40.426Z,14.32
2022-09-11T23:36:47.623Z,14.25
2022-09-11T23:39:52.695Z,14.23
2022-09-11T23:42:57.820Z,14.23
2022-09-11T23:46:03.164Z,14.22
2022-09-11T23:49:08.255Z,14.21
2022-09-11T23:52:14.454Z,14.19
2022-09-11T23:55:19.581Z,14.11
2022-09-11T23:58:25.193Z,14.07
